createdAt,value
2022-10-11T00:00:31.797Z,101494.28
2022-10-11T00:03:01.806Z,101491.56
2022-10-11T00:05:29.871Z,101511.94
2022-10-11T00:07:57.872Z,101517.28
2022-10-11T00:10:26.153Z,101507.91
2022-10-11T00:12:54.039Z,101526.59
2022-10-11T00:15:23.157Z,101526.47
2022-10-11T00:17:51.255Z,101524.50
2022-10-11T00:20:31.384Z,101523.16
2022-10-11T00:23:09.847Z,101527.41
2022-10-11T00:26:00.007Z,101533.69
2022-10-11T00:28:41.534Z,101541.06
2022-10-11T00:31:21.867Z,101534.56
2022-10-11T00:34:01.576Z,101534.47
2022-10-11T00:36:41.282Z,101546.94
2022-10-11T00:39:21.265Z,101539.97
2022-10-11T00:42:02.568Z,101544.53
2022-10-11T00:44:46.595Z,101545.59
2022-10-11T00:47:25.964Z,101552.41
2022-10-11T00:50:20.488Z,101555.28
2022-10-11T00:53:04.365Z,101549.84
2022-10-11T00:55:52.098Z,101555.28
2022-10-11T00:58:35.006Z,101553.47
2022-10-11T01:01:13.892Z,101553.75
2022-10-11T01:03:54.113Z,101555.41
2022-10-11T01:06:35.805Z,101551.06
2022-10-11T01:09:16.709Z,101547.50
2022-10-11T01:12:00.465Z,101547.66
2022-10-11T01:15:09.275Z,101551.13
2022-10-11T01:17:58.354Z,101561.38
2022-10-11T01:20:50.241Z,101557.88
2022-10-11T01:24:05.997Z,101553.59
2022-10-11T01:27:18.726Z,101560.66
2022-10-11T01:30:24.410Z,101569.78
2022-10-11T01:33:18.253Z,101567.13
2022-10-11T01:36:09.073Z,101567.16
2022-10-11T01:38:54.658Z,101575.13
2022-10-11T01:41:39.374Z,101579.59
2022-10-11T01:44:21.518Z,101571.72
2022-10-11T01:47:01.437Z,101577.94
2022-10-11T01:49:41.955Z,101582.38
2022-10-11T01:52:21.532Z,101590.00
2022-10-11T01:55:19.889Z,101586.50
2022-10-11T01:58:15.137Z,101587.44
2022-10-11T02:01:04.699Z,101593.78
2022-10-11T02:03:50.207Z,101598.16
2022-10-11T02:06:36.627Z,101598.22
2022-10-11T02:09:28.813Z,101599.31
2022-10-11T02:12:13.276Z,101599.22
2022-10-11T02:14:57.545Z,101604.41
2022-10-11T02:17:43.040Z,101603.47
2022-10-11T02:20:27.280Z,101602.75
2022-10-11T02:23:11.622Z,101604.34
2022-10-11T02:25:50.981Z,101610.59
2022-10-11T02:28:34.866Z,101602.88
2022-10-11T02:31:18.314Z,101611.81
2022-10-11T02:34:06.559Z,101615.19
2022-10-11T02:36:55.827Z,101606.50
2022-10-11T02:39:40.987Z,101611.69
2022-10-11T02:42:26.929Z,101611.81
2022-10-11T02:45:12.846Z,101605.69
2022-10-11T02:47:55.517Z,101612.84
2022-10-11T02:50:36.027Z,101606.69
2022-10-11T02:53:15.757Z,101612.09
2022-10-11T02:55:56.583Z,101616.47
2022-10-11T02:58:36.962Z,101617.06
2022-10-11T03:01:17.164Z,101615.25
2022-10-11T03:03:58.083Z,101620.56
2022-10-11T03:06:37.883Z,101614.53
2022-10-11T03:09:17.715Z,101624.44
2022-10-11T03:11:57.503Z,101625.34
2022-10-11T03:14:38.927Z,101634.19
2022-10-11T03:17:35.516Z,101639.63
2022-10-11T03:20:16.222Z,101643.06
2022-10-11T03:22:54.627Z,101640.63
2022-10-11T03:25:34.775Z,101653.94
2022-10-11T03:28:15.600Z,101644.97
2022-10-11T03:31:07.248Z,101650.09
2022-10-11T03:33:46.874Z,101653.63
2022-10-11T03:36:25.375Z,101659.97
2022-10-11T03:39:05.186Z,101663.41
2022-10-11T03:41:44.694Z,101659.88
2022-10-11T03:44:24.492Z,101662.75
2022-10-11T03:47:04.294Z,101668.19
2022-10-11T03:49:44.046Z,101669.97
2022-10-11T03:52:23.909Z,101672.53
2022-10-11T03:55:04.080Z,101682.34
2022-10-11T03:57:43.724Z,101683.31
2022-10-11T04:00:23.303Z,101678.84
2022-10-11T04:03:04.696Z,101684.19
2022-10-11T04:05:44.419Z,101691.25
2022-10-11T04:08:41.817Z,101689.72
2022-10-11T04:11:21.731Z,101692.22
2022-10-11T04:14:02.101Z,101695.78
2022-10-11T04:16:42.930Z,101707.44
2022-10-11T04:19:37.768Z,101708.31
2022-10-11T04:22:17.905Z,101711.81
2022-10-11T04:25:00.269Z,101712.72
2022-10-11T04:27:40.657Z,101717.25
2022-10-11T04:30:21.794Z,101725.16
2022-10-11T04:33:01.489Z,101726.16
2022-10-11T04:35:41.446Z,101727.91
2022-10-11T04:38:21.024Z,101733.28
2022-10-11T04:41:08.448Z,101719.22
2022-10-11T04:43:49.202Z,101730.69
2022-10-11T04:46:30.299Z,101738.66
2022-10-11T04:49:09.820Z,101737.00
2022-10-11T04:51:49.638Z,101729.94
2022-10-11T04:54:29.538Z,101733.28
2022-10-11T04:57:09.255Z,101722.97
2022-10-11T04:59:50.348Z,101747.38
2022-10-11T05:02:30.427Z,101744.84
2022-10-11T05:05:10.959Z,101751.13
2022-10-11T05:07:51.571Z,101746.59
2022-10-11T05:10:31.425Z,101758.88
2022-10-11T05:13:11.169Z,101759.88
2022-10-11T05:15:51.035Z,101759.94
2022-10-11T05:18:31.344Z,101763.50
2022-10-11T05:21:18.861Z,101762.72
2022-10-11T05:23:59.058Z,101761.91
2022-10-11T05:26:39.742Z,101775.25
2022-10-11T05:29:21.323Z,101770.75
2022-10-11T05:32:00.995Z,101774.34
2022-10-11T05:34:40.824Z,101777.09
2022-10-11T05:37:20.913Z,101765.84
2022-10-11T05:40:00.335Z,101776.38
2022-10-11T05:42:40.180Z,101753.56
2022-10-11T05:45:33.218Z,101782.41
2022-10-11T05:48:13.565Z,101769.38
2022-10-11T05:50:52.996Z,101793.03
2022-10-11T05:53:33.062Z,101801.88
2022-10-11T05:56:24.106Z,101792.06
2022-10-11T05:59:03.489Z,101795.34
2022-10-11T06:01:43.345Z,101804.09
2022-10-11T06:04:23.145Z,101809.38
2022-10-11T06:07:03.408Z,101807.41
2022-10-11T06:09:42.974Z,101814.31
2022-10-11T06:12:23.159Z,101814.25
2022-10-11T06:15:18.635Z,101817.69
2022-10-11T06:18:11.847Z,101831.66
2022-10-11T06:21:09.854Z,101829.78
2022-10-11T06:24:03.479Z,101831.56
2022-10-11T06:27:01.227Z,101833.22
2022-10-11T06:30:08.464Z,101833.66
2022-10-11T06:33:05.664Z,101838.78
2022-10-11T06:36:00.718Z,101848.34
2022-10-11T06:38:55.938Z,101848.22
2022-10-11T06:41:50.515Z,101846.06
2022-10-11T06:44:46.492Z,101846.75
2022-10-11T06:47:47.087Z,101854.22
2022-10-11T06:50:59.051Z,101860.72
2022-10-11T06:53:55.547Z,101851.06
2022-10-11T06:56:52.857Z,101864.06
2022-10-11T06:59:50.205Z,101865.16
2022-10-11T07:02:52.930Z,101868.38
2022-10-11T07:05:46.256Z,101866.91
2022-10-11T07:08:56.252Z,101871.50
2022-10-11T07:11:51.081Z,101876.06
2022-10-11T07:14:48.493Z,101881.75
2022-10-11T07:17:42.274Z,101887.16
2022-10-11T07:20:51.526Z,101876.13
2022-10-11T07:23:47.944Z,101883.63
2022-10-11T07:26:42.540Z,101887.91
2022-10-11T07:29:42.567Z,101895.75
2022-10-11T07:32:52.415Z,101894.56
2022-10-11T07:35:48.413Z,101886.53
2022-10-11T07:38:48.255Z,101890.56
2022-10-11T07:41:54.225Z,101897.06
2022-10-11T07:44:47.566Z,101896.44
2022-10-11T07:47:46.560Z,101895.28
2022-10-11T07:50:52.804Z,101899.91
2022-10-11T07:53:57.236Z,101896.88
2022-10-11T07:56:51.655Z,101891.94
2022-10-11T07:59:50.105Z,101901.59
2022-10-11T08:02:48.332Z,101896.91
2022-10-11T08:05:45.825Z,101893.44
2022-10-11T08:08:42.340Z,101888.09
2022-10-11T08:11:38.424Z,101894.47
2022-10-11T08:14:36.391Z,101907.06
2022-10-11T08:17:46.856Z,101906.09
2022-10-11T08:20:52.894Z,101913.28
2022-10-11T08:23:51.116Z,101901.03
2022-10-11T08:26:48.196Z,101893.47
2022-10-11T08:29:27.131Z,101895.59
2022-10-11T08:32:38.586Z,101904.44
2022-10-11T08:35:39.045Z,101902.53
2022-10-11T08:38:32.972Z,101896.97
2022-10-11T08:41:43.246Z,101904.53
2022-10-11T08:45:09.458Z,101899.38
2022-10-11T08:48:13.198Z,101906.53
2022-10-11T08:50:44.000Z,101909.09
2022-10-11T08:53:20.923Z,101923.72
2022-10-11T08:55:52.357Z,101910.88
2022-10-11T08:58:23.383Z,101916.56
2022-10-11T09:00:54.271Z,101923.59
2022-10-11T09:03:37.887Z,101902.91
2022-10-11T09:06:16.131Z,101912.09
2022-10-11T09:09:01.796Z,101916.66
2022-10-11T09:11:46.639Z,101925.63
2022-10-11T09:14:37.641Z,101925.13
2022-10-11T09:17:14.529Z,101925.22
2022-10-11T09:20:04.449Z,101931.03
2022-10-11T09:22:45.266Z,101927.06
2022-10-11T09:25:23.478Z,101934.63
2022-10-11T09:28:03.557Z,101935.72
2022-10-11T09:30:32.590Z,101922.78
2022-10-11T09:33:11.900Z,101926.41
2022-10-11T09:35:44.055Z,101934.28
2022-10-11T09:38:18.186Z,101935.09
2022-10-11T09:40:55.567Z,101940.38
2022-10-11T09:43:23.528Z,101933.91
2022-10-11T09:45:51.777Z,101934.34
2022-10-11T09:48:23.906Z,101932.59
2022-10-11T09:50:59.310Z,101936.75
2022-10-11T09:53:56.032Z,101921.63
2022-10-11T09:56:25.152Z,101926.47
2022-10-11T09:59:10.199Z,101929.06
2022-10-11T10:01:38.424Z,101923.38
2022-10-11T10:04:09.596Z,101932.66
2022-10-11T10:06:40.086Z,101931.41
2022-10-11T10:09:26.057Z,101921.75
2022-10-11T10:11:55.105Z,101939.16
2022-10-11T10:14:26.353Z,101921.84
2022-10-11T10:17:03.967Z,101941.00
2022-10-11T10:19:44.722Z,101934.75
2022-10-11T10:22:20.619Z,101933.94
2022-10-11T10:24:50.249Z,101944.66
2022-10-11T10:27:22.407Z,101918.38
2022-10-11T10:30:17.089Z,101947.25
2022-10-11T10:32:52.205Z,101929.84
2022-10-11T10:35:31.157Z,101939.31
2022-10-11T10:38:09.181Z,101940.94
2022-10-11T10:40:47.296Z,101930.50
2022-10-11T10:43:17.516Z,101936.13
2022-10-11T10:46:14.475Z,101917.09
2022-10-11T10:49:23.594Z,101939.63
2022-10-11T10:51:49.299Z,101928.75
2022-10-11T10:54:33.038Z,101933.56
2022-10-11T10:57:04.214Z,101938.88
2022-10-11T10:59:49.314Z,101923.16
2022-10-11T11:02:39.683Z,101937.00
2022-10-11T11:05:18.727Z,101929.22
2022-10-11T11:07:50.893Z,101943.69
2022-10-11T11:10:24.009Z,101933.66
2022-10-11T11:12:55.746Z,101933.78
2022-10-11T11:15:32.629Z,101934.41
2022-10-11T11:18:21.348Z,101940.97
2022-10-11T11:21:06.118Z,101935.22
2022-10-11T11:23:41.883Z,101936.84
2022-10-11T11:26:19.282Z,101943.25
2022-10-11T11:29:04.329Z,101938.22
2022-10-11T11:31:45.901Z,101940.56
2022-10-11T11:34:19.470Z,101927.63
2022-10-11T11:36:50.027Z,101938.63
2022-10-11T11:39:21.963Z,101930.44
2022-10-11T11:41:56.390Z,101937.66
2022-10-11T11:44:30.644Z,101926.75
2022-10-11T11:47:04.237Z,101930.09
2022-10-11T11:49:36.886Z,101902.25
2022-10-11T11:52:06.595Z,101940.53
2022-10-11T11:54:47.841Z,101932.19
2022-10-11T11:57:33.760Z,101931.41
2022-10-11T12:00:07.790Z,101941.50
2022-10-11T12:02:46.456Z,101932.00
2022-10-11T12:05:18.379Z,101927.69
2022-10-11T12:07:53.941Z,101925.13
2022-10-11T12:10:32.191Z,101920.28
2022-10-11T12:13:10.873Z,101934.81
2022-10-11T12:15:39.496Z,101931.03
2022-10-11T12:18:15.973Z,101917.59
2022-10-11T12:20:45.728Z,101929.72
2022-10-11T12:23:40.637Z,101934.75
2022-10-11T12:26:35.596Z,101932.06
2022-10-11T12:29:34.266Z,101927.69
2022-10-11T12:32:45.165Z,101929.63
2022-10-11T12:35:40.090Z,101910.06
2022-10-11T12:38:16.813Z,101928.22
2022-10-11T12:40:47.347Z,101901.72
2022-10-11T12:43:37.428Z,101920.38
2022-10-11T12:46:39.451Z,101919.03
2022-10-11T12:49:26.994Z,101906.91
2022-10-11T12:52:01.308Z,101921.75
2022-10-11T12:55:13.875Z,101912.59
2022-10-11T12:58:07.532Z,101899.09
2022-10-11T13:00:43.765Z,101914.28
2022-10-11T13:03:32.657Z,101913.16
2022-10-11T13:06:02.097Z,101909.97
2022-10-11T13:08:35.769Z,101911.56
2022-10-11T13:11:06.899Z,101914.44
2022-10-11T13:13:40.781Z,101900.03
2022-10-11T13:16:12.884Z,101903.00
2022-10-11T13:18:48.413Z,101907.47
2022-10-11T13:21:23.022Z,101871.25
2022-10-11T13:23:57.980Z,101906.97
2022-10-11T13:26:28.075Z,101901.22
2022-10-11T13:28:57.122Z,101902.53
2022-10-11T13:31:26.234Z,101899.06
2022-10-11T13:33:59.022Z,101890.19
2022-10-11T13:36:28.510Z,101892.03
2022-10-11T13:38:58.890Z,101893.69
2022-10-11T13:41:28.190Z,101881.66
2022-10-11T13:43:58.216Z,101905.06
2022-10-11T13:46:28.643Z,101905.66
2022-10-11T13:49:02.962Z,101899.81
2022-10-11T13:51:34.736Z,101901.75
2022-10-11T13:54:05.303Z,101903.91
2022-10-11T13:56:37.500Z,101889.34
2022-10-11T13:59:06.018Z,101879.66
2022-10-11T14:01:41.048Z,101897.84
2022-10-11T14:04:12.489Z,101898.41
2022-10-11T14:06:47.393Z,101868.41
2022-10-11T14:09:21.532Z,101881.84
2022-10-11T14:11:50.017Z,101876.53
2022-10-11T14:14:42.062Z,101886.91
2022-10-11T14:17:17.262Z,101890.25
2022-10-11T14:19:49.602Z,101893.03
2022-10-11T14:22:19.319Z,101890.13
2022-10-11T14:24:49.037Z,101888.09
2022-10-11T14:27:21.381Z,101885.88
2022-10-11T14:30:12.889Z,101885.31
2022-10-11T14:32:37.754Z,101887.94
2022-10-11T14:35:07.747Z,101890.16
2022-10-11T14:37:40.325Z,101887.44
2022-10-11T14:40:20.034Z,101886.44
2022-10-11T14:42:48.245Z,101887.09
2022-10-11T14:45:16.451Z,101891.94
2022-10-11T14:47:45.145Z,101888.19
2022-10-11T14:50:29.788Z,101894.22
2022-10-11T14:52:58.128Z,101876.19
2022-10-11T14:55:26.186Z,101888.91
2022-10-11T14:57:55.275Z,101884.75
2022-10-11T15:00:26.966Z,101880.19
2022-10-11T15:02:55.741Z,101881.94
2022-10-11T15:05:32.706Z,101882.31
2022-10-11T15:08:01.951Z,101879.56
2022-10-11T15:10:32.066Z,101882.75
2022-10-11T15:13:00.391Z,101884.03
2022-10-11T15:15:30.614Z,101878.34
2022-10-11T15:18:01.794Z,101894.78
2022-10-11T15:20:33.621Z,101868.94
2022-10-11T15:23:02.259Z,101871.09
2022-10-11T15:25:30.740Z,101873.84
2022-10-11T15:27:59.357Z,101880.91
2022-10-11T15:30:30.782Z,101877.56
2022-10-11T15:32:58.907Z,101874.59
2022-10-11T15:35:29.542Z,101869.63
2022-10-11T15:38:00.936Z,101879.16
2022-10-11T15:40:33.333Z,101877.41
2022-10-11T15:43:01.824Z,101886.16
2022-10-11T15:45:30.613Z,101887.59
2022-10-11T15:47:59.298Z,101878.47
2022-10-11T15:50:37.840Z,101892.66
2022-10-11T15:53:09.254Z,101879.47
2022-10-11T15:55:39.584Z,101885.56
2022-10-11T15:58:08.075Z,101875.91
2022-10-11T16:00:35.987Z,101882.28
2022-10-11T16:03:03.948Z,101867.72
2022-10-11T16:05:31.941Z,101888.09
2022-10-11T16:08:00.191Z,101888.88
2022-10-11T16:10:29.513Z,101898.19
2022-10-11T16:12:57.804Z,101901.19
2022-10-11T16:15:25.941Z,101896.22
2022-10-11T16:17:53.835Z,101892.97
2022-10-11T16:20:24.360Z,101903.13
2022-10-11T16:22:54.075Z,101902.66
2022-10-11T16:25:22.928Z,101899.53
2022-10-11T16:27:53.172Z,101903.94
2022-10-11T16:30:21.350Z,101902.50
2022-10-11T16:32:49.259Z,101906.75
2022-10-11T16:35:18.029Z,101915.81
2022-10-11T16:37:46.116Z,101910.94
2022-10-11T16:40:17.458Z,101917.03
2022-10-11T16:42:46.353Z,101911.03
2022-10-11T16:45:16.912Z,101888.59
2022-10-11T16:47:45.465Z,101912.56
2022-10-11T16:50:14.216Z,101916.44
2022-10-11T16:52:42.213Z,101911.44
2022-10-11T16:55:10.920Z,101890.59
2022-10-11T16:57:38.894Z,101911.28
2022-10-11T17:00:08.703Z,101920.53
2022-10-11T17:02:38.022Z,101909.63
2022-10-11T17:05:06.566Z,101910.72
2022-10-11T17:07:34.635Z,101921.78
2022-10-11T17:10:02.723Z,101920.31
2022-10-11T17:12:31.913Z,101917.97
2022-10-11T17:14:59.887Z,101921.69
2022-10-11T17:17:28.097Z,101912.31
2022-10-11T17:19:57.428Z,101919.53
2022-10-11T17:22:25.962Z,101900.53
2022-10-11T17:24:53.982Z,101900.78
2022-10-11T17:27:21.949Z,101912.31
2022-10-11T17:29:49.923Z,101883.72
2022-10-11T17:32:17.873Z,101910.13
2022-10-11T17:34:45.789Z,101916.63
2022-10-11T17:37:15.261Z,101913.31
2022-10-11T17:39:43.409Z,101910.84
2022-10-11T17:42:11.382Z,101907.72
2022-10-11T17:44:39.393Z,101917.41
2022-10-11T17:47:07.359Z,101919.34
2022-10-11T17:49:35.306Z,101916.00
2022-10-11T17:52:03.426Z,101917.13
2022-10-11T17:54:32.965Z,101912.09
2022-10-11T17:57:01.003Z,101907.91
2022-10-11T17:59:30.568Z,101914.25
2022-10-11T18:01:58.707Z,101904.75
2022-10-11T18:04:29.630Z,101910.22
2022-10-11T18:06:57.619Z,101911.25
2022-10-11T18:09:25.627Z,101906.19
2022-10-11T18:11:54.891Z,101917.78
2022-10-11T18:14:23.064Z,101910.81
2022-10-11T18:16:51.342Z,101905.47
2022-10-11T18:19:19.304Z,101910.97
2022-10-11T18:21:47.274Z,101919.91
2022-10-11T18:24:17.252Z,101916.66
2022-10-11T18:26:46.638Z,101917.81
2022-10-11T18:29:16.171Z,101917.00
2022-10-11T18:31:44.244Z,101913.69
2022-10-11T18:34:14.093Z,101906.81
2022-10-11T18:36:42.136Z,101917.41
2022-10-11T18:39:14.269Z,101908.56
2022-10-11T18:41:44.500Z,101916.69
2022-10-11T18:44:15.033Z,101916.81
2022-10-11T18:46:44.938Z,101901.06
2022-10-11T18:49:13.437Z,101901.91
2022-10-11T18:51:42.974Z,101916.09
2022-10-11T18:54:15.241Z,101908.13
2022-10-11T18:56:46.703Z,101905.44
2022-10-11T18:59:14.629Z,101902.69
2022-10-11T19:01:45.672Z,101895.75
2022-10-11T19:04:16.838Z,101896.88
2022-10-11T19:06:47.590Z,101907.69
2022-10-11T19:09:21.305Z,101907.84
2022-10-11T19:11:49.830Z,101906.25
2022-10-11T19:14:20.469Z,101901.06
2022-10-11T19:16:51.695Z,101904.69
2022-10-11T19:19:21.381Z,101912.63
2022-10-11T19:21:49.661Z,101914.41
2022-10-11T19:24:18.927Z,101913.59
2022-10-11T19:26:49.026Z,101908.38
2022-10-11T19:29:19.783Z,101917.44
2022-10-11T19:31:50.787Z,101912.25
2022-10-11T19:34:19.583Z,101907.91
2022-10-11T19:36:50.097Z,101901.00
2022-10-11T19:39:21.642Z,101909.09
2022-10-11T19:41:50.441Z,101894.25
2022-10-11T19:44:18.763Z,101910.06
2022-10-11T19:46:54.128Z,101908.44
2022-10-11T19:49:25.734Z,101904.97
2022-10-11T19:51:55.256Z,101898.97
2022-10-11T19:54:23.931Z,101909.47
2022-10-11T19:56:52.525Z,101906.91
2022-10-11T19:59:20.838Z,101906.09
2022-10-11T20:01:52.624Z,101903.63
2022-10-11T20:04:50.546Z,101903.69
2022-10-11T20:07:11.468Z,101902.91
2022-10-11T20:09:39.370Z,101904.78
2022-10-11T20:12:08.045Z,101904.78
2022-10-11T20:14:36.037Z,101900.31
2022-10-11T20:17:04.040Z,101909.03
2022-10-11T20:19:33.624Z,101900.16
2022-10-11T20:22:02.169Z,101901.09
2022-10-11T20:24:33.516Z,101900.41
2022-10-11T20:27:03.378Z,101906.69
2022-10-11T20:29:31.411Z,101905.91
2022-10-11T20:31:59.832Z,101900.81
2022-10-11T20:34:28.648Z,101906.22
2022-10-11T20:36:57.951Z,101905.41
2022-10-11T20:39:26.070Z,101906.34
2022-10-11T20:41:53.987Z,101901.97
2022-10-11T20:44:21.910Z,101904.63
2022-10-11T20:46:49.929Z,101900.22
2022-10-11T20:49:19.796Z,101904.75
2022-10-11T20:51:47.920Z,101898.59
2022-10-11T20:54:17.752Z,101903.03
2022-10-11T20:56:45.919Z,101909.31
2022-10-11T20:59:13.806Z,101904.06
2022-10-11T21:01:42.836Z,101911.97
2022-10-11T21:04:18.369Z,101910.28
2022-10-11T21:06:46.568Z,101911.19
2022-10-11T21:09:16.557Z,101907.69
2022-10-11T21:11:46.805Z,101910.38
2022-10-11T21:14:14.779Z,101913.97
2022-10-11T21:16:43.052Z,101905.16
2022-10-11T21:19:16.090Z,101908.75
2022-10-11T21:21:50.884Z,101907.88
2022-10-11T21:24:21.473Z,101905.16
2022-10-11T21:26:50.813Z,101908.66
2022-10-11T21:29:19.182Z,101909.53
2022-10-11T21:31:47.134Z,101908.66
2022-10-11T21:34:15.228Z,101910.44
2022-10-11T21:36:43.459Z,101910.34
2022-10-11T21:39:11.443Z,101913.94
2022-10-11T21:41:41.914Z,101906.91
2022-10-11T21:44:11.336Z,101897.34
2022-10-11T21:47:05.542Z,101907.88
2022-10-11T21:49:27.143Z,101916.78
2022-10-11T21:51:55.321Z,101920.22
2022-10-11T21:54:23.225Z,101913.19
2022-10-11T21:56:51.115Z,101907.88
2022-10-11T21:59:20.404Z,101907.00
2022-10-11T22:01:48.416Z,101909.69
2022-10-11T22:04:16.333Z,101905.28
2022-10-11T22:06:44.278Z,101907.22
2022-10-11T22:09:12.236Z,101909.81
2022-10-11T22:11:40.119Z,101894.84
2022-10-11T22:14:08.848Z,101887.00
2022-10-11T22:16:38.196Z,101905.47
2022-10-11T22:19:06.168Z,101901.22
2022-10-11T22:21:34.127Z,101908.31
2022-10-11T22:24:02.072Z,101893.41
2022-10-11T22:26:31.782Z,101897.06
2022-10-11T22:29:00.596Z,101904.13
2022-10-11T22:31:29.216Z,101906.72
2022-10-11T22:34:00.470Z,101900.59
2022-10-11T22:36:30.353Z,101898.00
2022-10-11T22:38:58.608Z,101909.50
2022-10-11T22:41:26.760Z,101908.66
2022-10-11T22:43:54.651Z,101904.25
2022-10-11T22:46:22.515Z,101906.91
2022-10-11T22:48:50.421Z,101907.84
2022-10-11T22:51:19.780Z,101902.56
2022-10-11T22:53:47.666Z,101902.63
2022-10-11T22:56:15.660Z,101900.94
2022-10-11T22:58:43.532Z,101892.16
2022-10-11T23:01:13.683Z,101899.22
2022-10-11T23:03:41.606Z,101901.81
2022-10-11T23:06:09.903Z,101891.22
2022-10-11T23:08:39.166Z,101890.41
2022-10-11T23:11:08.312Z,101894.75
2022-10-11T23:13:36.630Z,101894.75
2022-10-11T23:16:08.823Z,101895.59
2022-10-11T23:18:36.734Z,101900.09
2022-10-11T23:21:05.959Z,101888.69
2022-10-11T23:23:34.271Z,101892.22
2022-10-11T23:26:06.209Z,101896.69
2022-10-11T23:28:34.232Z,101911.72
2022-10-11T23:31:06.406Z,101902.03
2022-10-11T23:33:34.287Z,101911.72
2022-10-11T23:36:02.353Z,101909.13
2022-10-11T23:38:30.277Z,101906.53
2022-10-11T23:40:58.165Z,101912.72
2022-10-11T23:43:27.394Z,101916.28
2022-10-11T23:45:55.877Z,101923.31
2022-10-11T23:48:23.806Z,101921.59
2022-10-11T23:50:51.699Z,101918.09
2022-10-11T23:53:19.564Z,101926.91
2022-10-11T23:55:47.462Z,101925.16
2022-10-11T23:58:15.390Z,101931.34
